Time;durP1;ratioP1;P1;durP2;ratioP2;P2;SDS_P1;SDS_P2;PMS_P1;PMS_P2;Temp;Humidity;BMP_temperature;BMP_pressure;BME280_temperature;BME280_humidity;BME280_pressure;Samples;Min_cycle;Max_cycle;Signal;HPM_P1;HPM_P2
2021/01/04 00:05:14;;;;;;;17.80;14.93;;;5.80;43.40;;;;;;10443187;28;20235;-71
2021/01/04 00:10:31;;;;;;;18.70;15.27;;;5.70;43.30;;;;;;10441906;28;20594;-71
2021/01/04 00:15:41;;;;;;;17.77;14.53;;;5.70;43.30;;;;;;10446473;28;20232;-71
2021/01/04 00:20:52;;;;;;;16.27;13.17;;;5.70;43.30;;;;;;10442529;28;20229;-71
2021/01/04 00:26:01;;;;;;;16.13;13.57;;;5.70;43.30;;;;;;10473505;28;20327;-71
2021/01/04 00:31:07;;;;;;;17.27;14.53;;;5.70;43.30;;;;;;10441152;28;20701;-71
2021/01/04 00:36:15;;;;;;;15.23;12.43;;;5.70;43.30;;;;;;10452463;28;20232;-72
2021/01/04 00:41:24;;;;;;;16.20;13.33;;;5.70;43.30;;;;;;10444648;28;20689;-71
2021/01/04 00:46:33;;;;;;;16.67;13.60;;;5.70;43.30;;;;;;10450816;28;20733;-71
2021/01/04 00:51:42;;;;;;;15.63;12.53;;;5.70;43.30;;;;;;10451350;28;20254;-71
2021/01/04 00:56:51;;;;;;;17.27;13.57;;;5.70;43.30;;;;;;10440967;28;20320;-72
2021/01/04 01:02:21;;;;;;;15.50;12.83;;;5.80;43.40;;;;;;10454170;28;20235;-71
2021/01/04 01:08:03;;;;;;;19.50;14.73;;;5.80;43.60;;;;;;10441121;28;20228;-74
2021/01/04 01:13:20;;;;;;;15.93;12.13;;;5.80;43.40;;;;;;10445720;28;20559;-72
2021/01/04 01:18:33;;;;;;;17.67;14.57;;;5.80;43.40;;;;;;10451310;28;20306;-74
2021/01/04 01:23:39;;;;;;;18.23;15.03;;;5.80;43.40;;;;;;10448105;28;20233;-73
2021/01/04 01:29:03;;;;;;;15.77;14.07;;;5.80;43.40;;;;;;10445448;28;20238;-74
2021/01/04 01:34:17;;;;;;;18.03;14.37;;;5.90;43.50;;;;;;10442345;28;20634;-74
2021/01/04 01:39:53;;;;;;;19.03;14.40;;;5.80;43.40;;;;;;10446017;28;20229;-71
2021/01/04 01:45:07;;;;;;;17.27;14.80;;;5.80;43.40;;;;;;10446590;28;20227;-71
2021/01/04 01:50:18;;;;;;;19.53;15.80;;;5.80;43.40;;;;;;10438498;28;20597;-72
2021/01/04 01:55:40;;;;;;;16.70;14.40;;;5.90;43.50;;;;;;10444909;28;20731;-71
2021/01/04 02:00:48;;;;;;;19.17;15.27;;;5.80;43.40;;;;;;10448187;28;20228;-74
2021/01/04 02:06:13;;;;;;;20.27;15.20;;;5.90;43.50;;;;;;10446002;28;20244;-74
2021/01/04 02:11:25;;;;;;;18.83;15.90;;;5.80;43.60;;;;;;10439214;28;20231;-74
2021/01/04 02:16:34;;;;;;;19.30;15.00;;;5.80;43.40;;;;;;10452341;28;20233;-74
2021/01/04 02:21:58;;;;;;;18.20;15.20;;;5.80;43.40;;;;;;10437488;28;20228;-75
2021/01/04 02:27:08;;;;;;;18.40;14.60;;;5.80;43.40;;;;;;10441783;28;20229;-74
2021/01/04 02:32:10;;;;;;;18.60;14.97;;;5.80;43.40;;;;;;10440465;28;20677;-74
2021/01/04 02:37:16;;;;;;;18.47;16.00;;;5.80;43.40;;;;;;10444773;28;20759;-74
2021/01/04 02:42:21;;;;;;;18.80;15.67;;;5.80;43.40;;;;;;10450040;28;20233;-74
2021/01/04 02:47:45;;;;;;;17.43;15.30;;;5.80;43.40;;;;;;10455835;28;20609;-74
2021/01/04 02:53:17;;;;;;;20.97;15.47;;;5.80;43.40;;;;;;10450742;28;20225;-74
2021/01/04 02:58:29;;;;;;;17.63;14.77;;;5.80;43.50;;;;;;10468660;28;20225;-71
2021/01/04 03:03:35;;;;;;;20.50;15.97;;;5.80;43.60;;;;;;10448836;28;20224;-72
2021/01/04 03:08:37;;;;;;;13.93;11.37;;;5.80;43.40;;;;;;10447829;28;20717;-72
2021/01/04 03:13:53;;;;;;;20.20;16.20;;;5.80;43.40;;;;;;10457135;28;20228;-72
2021/01/04 03:19:02;;;;;;;16.63;13.90;;;5.80;43.60;;;;;;10442782;28;20331;-72
2021/01/04 03:24:07;;;;;;;18.00;14.27;;;5.80;43.40;;;;;;10448680;28;20371;-72
2021/01/04 03:29:11;;;;;;;18.83;15.43;;;5.80;43.40;;;;;;10449341;28;20236;-72
2021/01/04 03:34:13;;;;;;;17.27;13.40;;;5.90;43.50;;;;;;10443978;28;20235;-72
2021/01/04 03:39:15;;;;;;;19.40;16.20;;;5.90;43.50;;;;;;10449332;28;20225;-72
2021/01/04 03:44:18;;;;;;;20.67;16.10;;;5.90;43.50;;;;;;10451382;28;20700;-72
2021/01/04 03:49:21;;;;;;;21.30;15.53;;;5.90;43.50;;;;;;10445601;28;20233;-72
2021/01/04 03:54:24;;;;;;;23.23;17.30;;;5.90;44.20;;;;;;10446239;28;20229;-72
2021/01/04 03:59:28;;;;;;;20.20;16.33;;;5.90;43.50;;;;;;10448330;28;20229;-72
2021/01/04 04:04:31;;;;;;;20.83;16.47;;;5.90;43.50;;;;;;10447260;28;20228;-72
2021/01/04 04:09:33;;;;;;;20.60;16.30;;;5.90;43.50;;;;;;10455418;28;20224;-72
2021/01/04 04:14:36;;;;;;;19.87;16.17;;;5.90;43.50;;;;;;10449221;28;20239;-72
2021/01/04 04:19:38;;;;;;;22.80;16.90;;;5.90;43.50;;;;;;10448416;28;20591;-72
2021/01/04 04:24:41;;;;;;;19.53;15.53;;;5.90;43.50;;;;;;10452168;28;20225;-72
2021/01/04 04:29:45;;;;;;;22.23;17.67;;;5.90;43.50;;;;;;10441563;28;20225;-72
2021/01/04 04:34:48;;;;;;;18.90;14.13;;;5.90;43.50;;;;;;10443076;28;20592;-72
2021/01/04 04:39:50;;;;;;;21.70;16.67;;;5.90;43.50;;;;;;10443181;28;20231;-72
2021/01/04 04:44:58;;;;;;;22.13;16.87;;;5.90;43.50;;;;;;10450413;28;20604;-72
2021/01/04 04:50:16;;;;;;;21.00;17.10;;;5.80;43.40;;;;;;10446831;28;20244;-72
2021/01/04 04:55:40;;;;;;;21.53;15.87;;;5.80;43.40;;;;;;10443198;28;20267;-72
2021/01/04 05:00:57;;;;;;;20.03;15.27;;;5.80;43.40;;;;;;10449475;28;20239;-72
2021/01/04 05:06:13;;;;;;;24.47;17.23;;;5.80;43.60;;;;;;10444225;28;20548;-71
2021/01/04 05:11:18;;;;;;;23.07;16.43;;;5.80;43.40;;;;;;10442456;28;20700;-72
2021/01/04 05:16:35;;;;;;;19.20;15.77;;;5.80;43.40;;;;;;10452731;28;20225;-72
2021/01/04 05:22:19;;;;;;;19.67;15.77;;;5.80;43.40;;;;;;10445224;28;20728;-72
2021/01/04 05:27:48;;;;;;;18.23;14.57;;;5.70;43.50;;;;;;10439312;28;20729;-72
2021/01/04 05:33:32;;;;;;;17.50;13.23;;;5.70;43.60;;;;;;10446692;28;20236;-72
2021/01/04 05:38:43;;;;;;;17.40;13.70;;;5.70;43.60;;;;;;10454822;28;20611;-72
2021/01/04 05:43:55;;;;;;;19.97;15.53;;;5.70;43.60;;;;;;10448232;28;20224;-71
2021/01/04 05:49:08;;;;;;;20.33;16.03;;;5.70;43.60;;;;;;10444953;28;20233;-72
2021/01/04 05:54:12;;;;;;;20.67;15.87;;;5.70;43.60;;;;;;10438735;28;20709;-72
2021/01/04 05:59:17;;;;;;;17.53;13.73;;;5.70;43.30;;;;;;10445600;28;20241;-71
2021/01/04 06:04:27;;;;;;;21.37;17.00;;;5.70;43.30;;;;;;10443479;28;20238;-72
2021/01/04 06:09:37;;;;;;;24.23;17.10;;;5.70;43.60;;;;;;10444394;28;20216;-72
2021/01/04 06:14:40;;;;;;;20.50;15.97;;;5.60;43.20;;;;;;10457858;28;20358;-72
2021/01/04 06:19:52;;;;;;;19.53;14.30;;;5.70;43.30;;;;;;10454152;28;20224;-71
2021/01/04 06:25:00;;;;;;;21.33;16.27;;;5.70;43.40;;;;;;10459301;28;20702;-72
2021/01/04 06:30:17;;;;;;;18.90;15.20;;;5.60;43.20;;;;;;10449949;28;20607;-72
2021/01/04 06:35:29;;;;;;;18.10;13.67;;;5.60;43.30;;;;;;10446710;28;20229;-72
2021/01/04 06:40:35;;;;;;;20.10;14.93;;;5.60;43.40;;;;;;10449483;28;20528;-72
2021/01/04 06:45:46;;;;;;;16.37;12.43;;;5.60;43.40;;;;;;10454626;28;20394;-72
2021/01/04 06:51:23;;;;;;;19.23;15.10;;;5.60;43.60;;;;;;10449807;28;20225;-71
2021/01/04 06:56:59;;;;;;;21.43;16.40;;;5.60;43.60;;;;;;10444927;28;20227;-71
2021/01/04 07:02:33;;;;;;;17.57;14.20;;;5.70;43.30;;;;;;10451498;28;20236;-73
2021/01/04 07:08:02;;;;;;;18.33;15.67;;;5.60;42.60;;;;;;10447776;28;20596;-72
2021/01/04 07:13:32;;;;;;;20.07;15.73;;;5.60;42.40;;;;;;10424157;28;20776;-72
2021/01/04 07:18:48;;;;;;;21.33;16.53;;;5.50;42.10;;;;;;10442850;28;20837;-72
2021/01/04 07:24:13;;;;;;;20.40;16.27;;;5.50;42.20;;;;;;10447520;28;20233;-71
2021/01/04 07:29:34;;;;;;;18.57;13.73;;;5.40;42.20;;;;;;10455997;28;20315;-72
2021/01/04 07:34:41;;;;;;;20.60;17.23;;;5.40;42.60;;;;;;10461975;28;20232;-71
2021/01/04 07:40:17;;;;;;;19.13;15.77;;;5.40;42.50;;;;;;10466405;28;20228;-72
2021/01/04 07:45:31;;;;;;;21.43;16.40;;;5.40;42.40;;;;;;10447357;28;20638;-73
2021/01/04 07:51:27;;;;;;;20.13;16.07;;;5.40;42.60;;;;;;10445992;28;20228;-73
2021/01/04 07:57:17;;;;;;;18.27;15.00;;;5.40;42.60;;;;;;10461015;28;20233;-74
2021/01/04 08:02:58;;;;;;;19.93;15.90;;;5.40;43.20;;;;;;10468776;28;20247;-74
2021/01/04 08:08:37;;;;;;;20.13;15.77;;;5.50;42.50;;;;;;10445965;28;20320;-73
2021/01/04 08:14:17;;;;;;;20.87;16.77;;;5.50;42.40;;;;;;10451015;28;20600;-74
2021/01/04 08:19:21;;;;;;;19.80;15.87;;;5.50;42.40;;;;;;10424068;28;20229;-73
2021/01/04 08:24:30;;;;;;;20.30;16.50;;;5.50;43.10;;;;;;10444388;28;20441;-74
2021/01/04 08:29:40;;;;;;;19.83;15.67;;;5.60;42.80;;;;;;10454679;28;20235;-73
2021/01/04 08:34:44;;;;;;;17.83;14.60;;;5.60;42.80;;;;;;10443285;28;20235;-73
2021/01/04 08:39:50;;;;;;;18.40;14.77;;;5.60;42.90;;;;;;10449385;28;20564;-73
2021/01/04 08:44:56;;;;;;;21.07;16.17;;;5.60;42.40;;;;;;10448984;28;20232;-73
2021/01/04 08:50:13;;;;;;;19.83;16.00;;;5.60;42.10;;;;;;10452657;28;20224;-73
2021/01/04 08:55:27;;;;;;;19.67;15.83;;;5.60;41.80;;;;;;10438733;28;20232;-73
2021/01/04 09:00:30;;;;;;;19.43;16.00;;;5.60;42.10;;;;;;10455559;28;20224;-70
2021/01/04 09:05:36;;;;;;;20.13;15.90;;;5.60;42.40;;;;;;10454117;28;20255;-70
2021/01/04 09:10:42;;;;;;;18.57;15.53;;;5.60;42.40;;;;;;10450876;28;20224;-70
2021/01/04 09:15:45;;;;;;;17.77;14.93;;;5.60;42.50;;;;;;10452682;28;20232;-70
2021/01/04 09:20:52;;;;;;;18.70;15.83;;;5.60;42.50;;;;;;10450743;28;20228;-70
2021/01/04 09:26:09;;;;;;;18.23;15.20;;;5.60;42.00;;;;;;10452384;28;20240;-70
2021/01/04 09:31:17;;;;;;;17.17;14.87;;;5.60;41.90;;;;;;10411303;28;20233;-70
2021/01/04 09:36:21;;;;;;;17.90;15.13;;;5.60;41.90;;;;;;10421035;28;20713;-70
2021/01/04 09:41:24;;;;;;;19.63;15.67;;;5.60;42.10;;;;;;10452922;28;20220;-70
2021/01/04 09:46:42;;;;;;;18.00;14.90;;;5.60;42.10;;;;;;10451945;28;20591;-70
2021/01/04 09:51:49;;;;;;;19.47;15.93;;;5.60;41.90;;;;;;10458211;28;20224;-70
2021/01/04 09:56:59;;;;;;;21.57;16.93;;;5.60;41.90;;;;;;10458394;28;20246;-70
2021/01/04 10:02:03;;;;;;;18.00;14.70;;;5.70;42.00;;;;;;10458787;28;20221;-70
2021/01/04 10:07:07;;;;;;;19.90;15.90;;;5.60;42.10;;;;;;10454058;28;20316;-70
2021/01/04 10:12:13;;;;;;;21.50;17.17;;;5.50;42.40;;;;;;10459912;28;20233;-70
2021/01/04 10:17:40;;;;;;;22.60;16.80;;;5.60;41.90;;;;;;10463152;28;20247;-70
2021/01/04 10:22:46;;;;;;;19.93;16.50;;;5.60;42.00;;;;;;10458805;28;20228;-70
2021/01/04 10:27:52;;;;;;;20.57;16.17;;;5.40;41.50;;;;;;10461548;28;20232;-69
2021/01/04 10:33:10;;;;;;;21.23;17.93;;;5.30;41.80;;;;;;10455715;28;20576;-69
2021/01/04 10:38:18;;;;;;;22.23;18.13;;;5.20;41.80;;;;;;10459120;28;20304;-70
2021/01/04 10:43:23;;;;;;;21.50;16.73;;;5.20;41.80;;;;;;10459784;28;20217;-69
2021/01/04 10:48:55;;;;;;;20.63;16.50;;;5.20;41.90;;;;;;10459791;28;20239;-69
2021/01/04 10:53:57;;;;;;;17.37;14.00;;;5.20;41.50;;;;;;10457712;28;20768;-69
2021/01/04 10:59:10;;;;;;;18.30;14.17;;;5.10;41.80;;;;;;10457887;28;20271;-69
2021/01/04 11:04:16;;;;;;;19.13;13.80;;;5.00;41.50;;;;;;10458631;28;20221;-69
2021/01/04 11:09:21;;;;;;;19.00;14.90;;;4.90;41.90;;;;;;10459950;28;20229;-69
2021/01/04 11:14:24;;;;;;;18.83;13.83;;;5.00;42.10;;;;;;10458356;28;20515;-69
2021/01/04 11:19:39;;;;;;;19.30;14.77;;;5.00;42.20;;;;;;10454301;28;20231;-70
2021/01/04 11:24:41;;;;;;;17.23;14.47;;;5.00;42.00;;;;;;10456102;28;20735;-69
2021/01/04 11:29:44;;;;;;;19.23;14.87;;;5.00;42.20;;;;;;10456147;28;20223;-71
2021/01/04 11:34:49;;;;;;;17.07;14.40;;;5.10;42.90;;;;;;10463070;28;20228;-71
2021/01/04 11:39:52;;;;;;;18.67;15.23;;;5.20;42.90;;;;;;10468717;28;20220;-71
2021/01/04 11:44:54;;;;;;;20.10;15.37;;;5.30;42.70;;;;;;10473929;28;20311;-71
2021/01/04 11:49:57;;;;;;;17.83;14.50;;;5.40;42.40;;;;;;10474414;28;20239;-70
2021/01/04 11:54:59;;;;;;;18.90;14.70;;;5.50;42.20;;;;;;10475427;28;20236;-71
2021/01/04 12:00:02;;;;;;;19.53;14.90;;;5.50;42.00;;;;;;10473986;28;20685;-71
2021/01/04 12:05:06;;;;;;;19.07;14.37;;;5.50;42.00;;;;;;10476186;28;20234;-71
2021/01/04 12:10:09;;;;;;;15.97;12.87;;;5.50;41.70;;;;;;10474427;28;20221;-71
2021/01/04 12:15:13;;;;;;;16.17;11.40;;;5.50;41.60;;;;;;10473114;28;20224;-71
2021/01/04 12:20:17;;;;;;;12.73;10.73;;;5.40;41.50;;;;;;10471641;28;20319;-73
2021/01/04 12:25:19;;;;;;;14.10;10.80;;;5.40;41.50;;;;;;10473058;28;20252;-72
2021/01/04 12:30:25;;;;;;;12.57;9.40;;;5.40;41.10;;;;;;10472385;28;20664;-73
2021/01/04 12:35:28;;;;;;;8.37;7.27;;;5.30;41.20;;;;;;10468913;28;20707;-73
2021/01/04 12:40:33;;;;;;;10.37;8.67;;;5.20;41.20;;;;;;10472860;28;20228;-72
2021/01/04 12:45:36;;;;;;;11.53;9.13;;;5.10;40.90;;;;;;10451598;28;20221;-72
2021/01/04 12:50:39;;;;;;;9.73;7.63;;;5.10;41.20;;;;;;10468325;28;20220;-72
2021/01/04 12:55:41;;;;;;;9.37;8.13;;;5.00;41.20;;;;;;10476547;28;20230;-72
2021/01/04 13:00:44;;;;;;;9.70;8.07;;;4.90;41.50;;;;;;10464409;28;20236;-72
2021/01/04 13:05:48;;;;;;;10.10;8.10;;;4.90;41.70;;;;;;10471296;28;20220;-72
2021/01/04 13:10:50;;;;;;;9.93;8.57;;;5.00;41.70;;;;;;10473235;28;20257;-69
2021/01/04 13:15:52;;;;;;;10.53;8.37;;;5.00;41.70;;;;;;10470856;28;20235;-69
2021/01/04 13:20:55;;;;;;;9.97;8.63;;;5.00;41.40;;;;;;10469070;28;20588;-69
2021/01/04 13:25:58;;;;;;;9.07;7.57;;;5.00;41.50;;;;;;10465719;28;20344;-69
2021/01/04 13:31:00;;;;;;;8.87;7.43;;;5.00;41.70;;;;;;10469939;28;20596;-69
2021/01/04 13:36:07;;;;;;;8.00;6.70;;;5.10;41.90;;;;;;10448366;28;20225;-70
2021/01/04 13:41:12;;;;;;;8.47;7.00;;;5.10;41.70;;;;;;10457092;28;20628;-69
2021/01/04 13:46:20;;;;;;;9.60;8.10;;;5.20;42.40;;;;;;10470426;28;20224;-69
2021/01/04 13:51:24;;;;;;;9.33;7.93;;;5.30;41.50;;;;;;10472228;28;20228;-69
2021/01/04 13:56:27;;;;;;;9.67;8.00;;;5.30;41.60;;;;;;10473478;28;20228;-69
2021/01/04 14:01:29;;;;;;;8.70;7.23;;;5.40;41.70;;;;;;10452310;28;20220;-69
2021/01/04 14:06:39;;;;;;;10.03;8.30;;;5.40;41.60;;;;;;10468792;28;20226;-69
2021/01/04 14:11:42;;;;;;;8.03;6.90;;;5.40;41.20;;;;;;10477523;28;20712;-70
2021/01/04 14:16:45;;;;;;;9.53;7.40;;;5.40;41.40;;;;;;10476813;28;20231;-69
2021/01/04 14:21:49;;;;;;;8.37;7.33;;;5.40;41.30;;;;;;10472102;28;20224;-69
2021/01/04 14:26:51;;;;;;;9.40;7.43;;;5.40;41.20;;;;;;10476470;28;20224;-69
2021/01/04 14:31:54;;;;;;;8.07;6.93;;;5.40;41.20;;;;;;10473025;28;20220;-69
2021/01/04 14:36:57;;;;;;;8.90;7.97;;;5.40;41.30;;;;;;10459525;28;20221;-70
2021/01/04 14:42:01;;;;;;;7.87;6.60;;;5.40;41.20;;;;;;10453025;28;20220;-69
2021/01/04 14:47:06;;;;;;;9.13;7.73;;;5.40;41.30;;;;;;10481316;28;20228;-69
2021/01/04 14:52:10;;;;;;;7.13;6.43;;;5.30;41.20;;;;;;10480111;28;20216;-72
2021/01/04 14:57:13;;;;;;;7.43;6.33;;;5.30;41.20;;;;;;10466572;28;20315;-72
2021/01/04 15:02:16;;;;;;;7.43;6.63;;;5.30;41.40;;;;;;10466038;28;20599;-71
2021/01/04 15:07:20;;;;;;;7.23;6.37;;;5.30;41.40;;;;;;10463055;28;20220;-71
2021/01/04 15:12:22;;;;;;;7.87;6.87;;;5.30;41.40;;;;;;10443123;28;20585;-72
2021/01/04 15:17:24;;;;;;;7.43;6.67;;;5.30;41.50;;;;;;10481082;28;20228;-71
2021/01/04 15:22:27;;;;;;;7.47;6.67;;;5.20;41.50;;;;;;10460466;28;20231;-71
2021/01/04 15:27:30;;;;;;;8.37;7.33;;;5.20;41.50;;;;;;10475459;28;20227;-71
2021/01/04 15:32:32;;;;;;;8.40;7.37;;;5.20;41.50;;;;;;10482783;28;20223;-71
2021/01/04 15:37:35;;;;;;;10.80;8.53;;;5.20;41.60;;;;;;10457098;28;20323;-72
2021/01/04 15:42:37;;;;;;;9.73;8.17;;;5.20;41.50;;;;;;10472819;28;20220;-72
2021/01/04 15:47:40;;;;;;;10.97;8.93;;;5.20;41.50;;;;;;10481840;28;20497;-71
2021/01/04 15:52:43;;;;;;;9.33;8.07;;;5.20;41.50;;;;;;10484351;28;20659;-71
2021/01/04 15:57:45;;;;;;;9.97;8.37;;;5.20;41.50;;;;;;10478863;28;20299;-71
2021/01/04 16:02:47;;;;;;;10.57;8.50;;;5.20;41.60;;;;;;10480834;28;20303;-71
2021/01/04 16:07:50;;;;;;;10.27;9.03;;;5.20;41.60;;;;;;10484343;28;20238;-73
2021/01/04 16:12:53;;;;;;;9.67;7.33;;;5.20;41.60;;;;;;10474485;28;20319;-72
2021/01/04 16:17:58;;;;;;;10.27;8.77;;;5.20;41.70;;;;;;10480722;28;20232;-72
2021/01/04 16:23:01;;;;;;;9.70;8.63;;;5.20;41.80;;;;;;10489733;28;20234;-72
2021/01/04 16:28:04;;;;;;;9.57;8.00;;;5.10;41.50;;;;;;10477353;28;20274;-72
2021/01/04 16:33:06;;;;;;;8.73;7.83;;;5.10;41.40;;;;;;10449490;28;20224;-72
2021/01/04 16:38:09;;;;;;;8.40;7.50;;;5.10;41.50;;;;;;10457070;28;20810;-70
2021/01/04 16:43:12;;;;;;;8.53;7.67;;;5.10;41.60;;;;;;10478389;28;20229;-71
2021/01/04 16:48:14;;;;;;;8.90;7.63;;;5.10;41.70;;;;;;10479230;28;20227;-70
2021/01/04 16:53:17;;;;;;;8.63;7.73;;;5.10;41.70;;;;;;10484182;28;20334;-70
2021/01/04 16:58:21;;;;;;;11.63;8.87;;;5.10;41.70;;;;;;10473488;28;20244;-72
2021/01/04 17:03:23;;;;;;;9.00;8.00;;;5.10;41.70;;;;;;10472256;28;20586;-70
2021/01/04 17:08:26;;;;;;;11.10;8.20;;;5.10;41.80;;;;;;10467120;28;20233;-71
2021/01/04 17:13:29;;;;;;;11.27;9.17;;;5.10;41.70;;;;;;10455484;28;20224;-70
2021/01/04 17:18:31;;;;;;;9.73;8.73;;;5.10;41.70;;;;;;10457311;28;20220;-70
2021/01/04 17:23:36;;;;;;;10.27;9.17;;;5.10;41.80;;;;;;10465062;28;20693;-70
2021/01/04 17:28:39;;;;;;;10.63;9.50;;;5.10;41.80;;;;;;10460500;28;20226;-70
2021/01/04 17:33:41;;;;;;;12.30;10.60;;;5.20;42.00;;;;;;10472645;28;20221;-70
2021/01/04 17:38:45;;;;;;;11.50;9.87;;;5.20;42.00;;;;;;10474527;28;20258;-70
2021/01/04 17:43:48;;;;;;;10.70;9.43;;;5.20;41.90;;;;;;10483603;28;20228;-70
2021/01/04 17:48:51;;;;;;;12.37;11.07;;;5.20;42.00;;;;;;10462481;28;20246;-70
2021/01/04 17:53:55;;;;;;;11.67;10.33;;;5.30;42.00;;;;;;10450879;28;20216;-70
2021/01/04 17:58:59;;;;;;;12.43;10.17;;;5.30;42.00;;;;;;10444410;28;20235;-70
2021/01/04 18:04:01;;;;;;;12.83;10.50;;;5.30;41.90;;;;;;10436504;28;20245;-71
2021/01/04 18:09:05;;;;;;;15.60;13.57;;;5.30;41.90;;;;;;10422040;28;20232;-70
2021/01/04 18:14:08;;;;;;;15.23;13.00;;;5.30;41.90;;;;;;10462783;28;20224;-70
2021/01/04 18:19:10;;;;;;;12.50;11.17;;;5.30;41.90;;;;;;10448097;28;20510;-70
2021/01/04 18:24:15;;;;;;;14.73;11.77;;;5.30;41.90;;;;;;10449489;28;20708;-70
2021/01/04 18:29:25;;;;;;;10.87;9.77;;;5.30;41.70;;;;;;10463516;28;20229;-71
2021/01/04 18:34:27;;;;;;;10.83;9.73;;;5.20;41.80;;;;;;10453803;28;20231;-70
2021/01/04 18:39:30;;;;;;;26.87;19.00;;;5.10;41.90;;;;;;10449729;28;20225;-70
2021/01/04 18:44:32;;;;;;;16.40;11.53;;;5.10;42.10;;;;;;10458540;28;20235;-70
2021/01/04 18:49:35;;;;;;;12.33;10.50;;;5.10;42.10;;;;;;10449373;28;20243;-70
2021/01/04 18:54:38;;;;;;;16.83;13.97;;;5.10;42.20;;;;;;10449523;28;20591;-70
2021/01/04 18:59:40;;;;;;;14.67;11.63;;;5.10;42.20;;;;;;10456147;28;20858;-70
2021/01/04 19:04:42;;;;;;;15.43;13.57;;;5.10;42.00;;;;;;10461761;28;20236;-70
2021/01/04 19:09:58;;;;;;;15.47;13.87;;;5.10;42.20;;;;;;10456318;28;20226;-70
2021/01/04 19:15:01;;;;;;;13.63;10.53;;;5.10;42.20;;;;;;10458329;28;20611;-70
2021/01/04 19:20:05;;;;;;;11.10;9.53;;;5.20;42.30;;;;;;10444346;28;20220;-71
2021/01/04 19:25:10;;;;;;;13.27;10.37;;;5.20;42.30;;;;;;10450270;28;20235;-70
2021/01/04 19:30:15;;;;;;;9.63;8.27;;;5.20;42.20;;;;;;10455519;28;20217;-70
2021/01/04 19:35:19;;;;;;;11.93;9.80;;;5.20;42.20;;;;;;10454062;28;20228;-71
2021/01/04 19:40:22;;;;;;;11.73;10.03;;;5.20;42.10;;;;;;10457798;28;20311;-71
2021/01/04 19:45:25;;;;;;;11.53;10.17;;;5.30;42.20;;;;;;10458481;28;20232;-70
2021/01/04 19:50:27;;;;;;;15.90;12.63;;;5.30;42.20;;;;;;10457973;28;20246;-71
2021/01/04 19:55:30;;;;;;;10.67;9.60;;;5.30;42.30;;;;;;10461032;28;20235;-70
2021/01/04 20:00:32;;;;;;;12.17;10.47;;;5.30;42.20;;;;;;10452355;28;20226;-70
2021/01/04 20:05:34;;;;;;;18.83;15.47;;;5.30;42.10;;;;;;10412923;28;20510;-70
2021/01/04 20:10:38;;;;;;;13.30;11.90;;;5.30;41.90;;;;;;10414977;28;20228;-70
2021/01/04 20:15:40;;;;;;;12.20;10.90;;;5.20;42.10;;;;;;10413303;28;20386;-70
2021/01/04 20:20:42;;;;;;;12.53;10.30;;;5.20;42.10;;;;;;10409761;28;20234;-70
2021/01/04 20:25:48;;;;;;;13.50;11.40;;;5.20;42.20;;;;;;10412251;28;20514;-70
2021/01/04 20:30:51;;;;;;;12.27;11.03;;;5.20;42.20;;;;;;10411474;28;20234;-70
2021/01/04 20:35:55;;;;;;;10.90;9.37;;;5.10;42.20;;;;;;10415051;28;20506;-68
2021/01/04 20:40:59;;;;;;;11.27;9.43;;;5.10;43.00;;;;;;10410639;28;20270;-71
2021/01/04 20:46:03;;;;;;;11.13;9.47;;;5.10;42.80;;;;;;10415642;28;20260;-71
2021/01/04 20:51:07;;;;;;;11.60;9.70;;;5.10;42.50;;;;;;10405064;28;20228;-71
2021/01/04 20:56:11;;;;;;;13.93;9.47;;;5.10;42.50;;;;;;10412589;28;20238;-71
2021/01/04 21:01:14;;;;;;;10.87;9.73;;;5.20;42.40;;;;;;10413575;28;20732;-72
2021/01/04 21:06:17;;;;;;;12.13;9.97;;;5.20;42.40;;;;;;10414569;28;20717;-71
2021/01/04 21:11:20;;;;;;;11.40;8.83;;;5.20;42.50;;;;;;10416411;28;20754;-71
2021/01/04 21:16:22;;;;;;;10.80;9.70;;;5.20;42.40;;;;;;10413856;28;20777;-71
2021/01/04 21:21:25;;;;;;;11.03;9.40;;;5.20;42.50;;;;;;10415196;28;20673;-71
2021/01/04 21:26:29;;;;;;;10.73;9.63;;;5.20;42.50;;;;;;10414484;28;20229;-71
2021/01/04 21:31:34;;;;;;;10.97;9.80;;;5.20;42.50;;;;;;10415962;28;20193;-71
2021/01/04 21:36:38;;;;;;;10.10;9.07;;;5.20;42.40;;;;;;10415503;28;20223;-71
2021/01/04 21:41:43;;;;;;;8.80;7.90;;;5.30;42.50;;;;;;10414791;28;20937;-71
2021/01/04 21:46:46;;;;;;;12.00;10.47;;;5.30;42.60;;;;;;10411196;28;20541;-71
2021/01/04 21:51:50;;;;;;;10.60;9.50;;;5.30;42.50;;;;;;10415652;28;20213;-71
2021/01/04 21:56:55;;;;;;;12.07;9.90;;;5.30;42.40;;;;;;10413810;28;20708;-71
2021/01/04 22:01:59;;;;;;;12.57;9.40;;;5.30;42.40;;;;;;10415266;28;20209;-71
2021/01/04 22:07:01;;;;;;;9.50;8.50;;;5.30;42.40;;;;;;10414947;28;20512;-71
2021/01/04 22:12:05;;;;;;;10.00;9.00;;;5.30;42.50;;;;;;10413083;28;20566;-71
2021/01/04 22:17:08;;;;;;;10.87;9.17;;;5.30;42.60;;;;;;10419242;28;20217;-71
2021/01/04 22:22:10;;;;;;;8.87;7.63;;;5.30;42.60;;;;;;10421170;28;20217;-72
2021/01/04 22:27:13;;;;;;;11.40;9.53;;;5.30;42.60;;;;;;10421110;28;20488;-71
2021/01/04 22:32:15;;;;;;;9.80;8.70;;;5.30;42.70;;;;;;10419910;28;20289;-71
2021/01/04 22:37:17;;;;;;;12.50;10.50;;;5.30;42.70;;;;;;10420287;28;20312;-71
2021/01/04 22:42:20;;;;;;;11.70;9.93;;;5.40;42.80;;;;;;10420374;28;20206;-71
2021/01/04 22:47:24;;;;;;;13.90;10.83;;;5.40;42.80;;;;;;10421151;28;20236;-71
2021/01/04 22:52:26;;;;;;;11.13;9.17;;;5.40;42.90;;;;;;10418454;28;20230;-71
2021/01/04 22:57:29;;;;;;;12.77;11.43;;;5.40;42.80;;;;;;10423488;28;20293;-72
2021/01/04 23:02:31;;;;;;;11.77;10.27;;;5.40;42.90;;;;;;10424462;28;20707;-72
2021/01/04 23:07:34;;;;;;;12.07;9.97;;;5.40;42.70;;;;;;10423000;28;20242;-72
2021/01/04 23:12:37;;;;;;;8.83;7.93;;;5.40;42.90;;;;;;10431552;28;20220;-72
2021/01/04 23:17:39;;;;;;;10.40;8.73;;;5.40;42.90;;;;;;10438134;28;20225;-72
2021/01/04 23:22:41;;;;;;;10.60;9.50;;;5.40;42.90;;;;;;10437211;28;20226;-72
2021/01/04 23:27:45;;;;;;;11.43;9.83;;;5.40;42.90;;;;;;10438239;28;20275;-72
2021/01/04 23:32:48;;;;;;;11.23;10.07;;;5.40;42.90;;;;;;10437518;28;20687;-72
2021/01/04 23:37:51;;;;;;;11.57;9.93;;;5.40;42.90;;;;;;10438252;28;20245;-71
2021/01/04 23:42:54;;;;;;;13.50;11.70;;;5.40;43.00;;;;;;10424680;28;20222;-71
2021/01/04 23:47:57;;;;;;;15.00;13.40;;;5.40;43.00;;;;;;10415898;28;20326;-71
2021/01/04 23:52:59;;;;;;;10.37;9.27;;;5.40;42.90;;;;;;10410118;28;20236;-72
2021/01/04 23:58:02;;;;;;;12.77;10.97;;;5.40;43.00;;;;;;10423044;28;20233;-72
